createdAt,value
2022-08-09T00:00:59.808Z,21.12
2022-08-09T00:04:00.508Z,21.06
2022-08-09T00:06:23.316Z,21.02
2022-08-09T00:08:56.989Z,21.01
2022-08-09T00:11:54.977Z,21.00
2022-08-09T00:14:21.725Z,20.94
2022-08-09T00:16:57.078Z,20.93
2022-08-09T00:19:27.647Z,20.89
2022-08-09T00:21:57.111Z,20.86
2022-08-09T00:24:27.217Z,20.80
2022-08-09T00:26:57.428Z,20.85
2022-08-09T00:29:39.101Z,20.86
2022-08-09T00:32:27.227Z,20.83
2022-08-09T00:34:58.767Z,20.84
2022-08-09T00:37:32.315Z,20.82
2022-08-09T00:40:13.928Z,20.68
2022-08-09T00:44:25.531Z,20.67
2022-08-09T00:45:35.190Z,20.65
2022-08-09T00:48:04.422Z,20.61
2022-08-09T00:50:37.822Z,20.60
2022-08-09T00:53:10.582Z,20.62
2022-08-09T00:56:05.304Z,20.62
2022-08-09T00:58:31.619Z,20.56
2022-08-09T01:01:00.635Z,20.54
2022-08-09T01:03:46.270Z,20.59
2022-08-09T01:06:22.278Z,20.52
2022-08-09T01:09:02.906Z,20.53
2022-08-09T01:11:53.102Z,20.51
2022-08-09T01:14:29.939Z,20.49
2022-08-09T01:17:04.414Z,20.49
2022-08-09T01:19:57.195Z,20.53
2022-08-09T01:22:55.099Z,20.50
2022-08-09T01:25:37.431Z,20.47
2022-08-09T01:28:12.982Z,20.48
2022-08-09T01:30:51.454Z,20.47
2022-08-09T01:33:25.918Z,20.45
2022-08-09T01:36:00.948Z,20.45
2022-08-09T01:38:33.020Z,20.43
2022-08-09T01:41:07.492Z,20.36
2022-08-09T01:43:50.042Z,20.36
2022-08-09T01:46:25.278Z,20.34
2022-08-09T01:49:09.711Z,20.34
2022-08-09T01:51:44.228Z,20.35
2022-08-09T01:54:15.100Z,20.32
2022-08-09T01:56:47.165Z,20.32
2022-08-09T01:59:23.756Z,20.33
2022-08-09T02:01:59.750Z,20.30
2022-08-09T02:04:31.090Z,20.31
2022-08-09T02:07:15.359Z,20.31
2022-08-09T02:09:59.815Z,20.31
2022-08-09T02:12:35.315Z,20.30
2022-08-09T02:15:15.431Z,20.31
2022-08-09T02:18:01.469Z,20.28
2022-08-09T02:20:42.096Z,20.26
2022-08-09T02:23:16.943Z,20.23
2022-08-09T02:25:52.876Z,20.21
2022-08-09T02:28:30.698Z,20.21
2022-08-09T02:31:06.019Z,20.20
2022-08-09T02:34:07.042Z,20.18
2022-08-09T02:36:34.649Z,20.14
2022-08-09T02:39:20.109Z,20.15
2022-08-09T02:42:00.151Z,20.15
2022-08-09T02:44:37.453Z,20.16
2022-08-09T02:47:10.881Z,20.11
2022-08-09T02:49:44.533Z,20.12
2022-08-09T02:52:16.334Z,20.13
2022-08-09T02:54:54.218Z,20.13
2022-08-09T02:57:25.738Z,20.14
2022-08-09T03:00:20.469Z,20.15
2022-08-09T03:03:00.435Z,20.13
2022-08-09T03:05:34.486Z,20.09
2022-08-09T03:08:05.835Z,20.10
2022-08-09T03:10:36.716Z,20.12
2022-08-09T03:13:08.595Z,20.13
2022-08-09T03:16:06.686Z,20.11
2022-08-09T03:18:31.595Z,20.08
2022-08-09T03:21:03.050Z,20.07
2022-08-09T03:23:32.116Z,20.07
2022-08-09T03:26:04.846Z,20.08
2022-08-09T03:28:36.011Z,20.08
2022-08-09T03:31:10.440Z,20.04
2022-08-09T03:33:54.812Z,20.06
2022-08-09T03:36:27.055Z,20.07
2022-08-09T03:38:58.066Z,20.08
2022-08-09T03:41:29.999Z,20.05
2022-08-09T03:44:15.693Z,20.01
2022-08-09T03:46:44.295Z,20.04
2022-08-09T03:49:17.571Z,20.04
2022-08-09T03:51:58.554Z,20.00
2022-08-09T03:54:34.593Z,20.03
2022-08-09T03:57:18.089Z,20.06
2022-08-09T03:59:55.013Z,20.09
2022-08-09T04:02:28.545Z,20.11
2022-08-09T04:05:05.680Z,20.13
2022-08-09T04:07:52.518Z,20.13
2022-08-09T04:10:29.049Z,20.14
2022-08-09T04:13:04.331Z,20.14
2022-08-09T04:16:18.667Z,20.12
2022-08-09T04:18:22.031Z,20.12
2022-08-09T04:20:52.251Z,20.14
2022-08-09T04:23:24.562Z,20.14
2022-08-09T04:25:55.822Z,20.15
2022-08-09T04:28:33.122Z,20.17
2022-08-09T04:31:08.656Z,20.11
2022-08-09T04:33:51.930Z,20.14
2022-08-09T04:36:25.343Z,20.15
2022-08-09T04:38:54.961Z,20.13
2022-08-09T04:41:24.401Z,20.09
2022-08-09T04:44:06.513Z,20.11
2022-08-09T04:46:59.120Z,20.15
2022-08-09T04:49:53.264Z,20.15
2022-08-09T04:52:26.581Z,20.15
2022-08-09T04:54:56.399Z,20.11
2022-08-09T04:57:25.710Z,20.09
2022-08-09T04:59:56.379Z,20.08
2022-08-09T05:02:27.164Z,20.06
2022-08-09T05:04:56.906Z,20.06
2022-08-09T05:07:32.067Z,20.07
2022-08-09T05:10:01.974Z,20.08
2022-08-09T05:12:33.010Z,20.04
2022-08-09T05:15:11.817Z,20.02
2022-08-09T05:18:50.488Z,20.09
2022-08-09T05:20:40.885Z,20.09
2022-08-09T05:23:54.267Z,20.14
2022-08-09T05:25:59.346Z,20.16
2022-08-09T05:28:27.875Z,20.17
2022-08-09T05:30:56.524Z,20.19
2022-08-09T05:33:32.877Z,20.19
2022-08-09T05:36:04.134Z,20.22
2022-08-09T05:38:39.149Z,20.21
2022-08-09T05:41:12.609Z,20.22
2022-08-09T05:43:45.262Z,20.26
2022-08-09T05:46:17.588Z,20.29
2022-08-09T05:48:48.600Z,20.34
2022-08-09T05:51:42.573Z,20.37
2022-08-09T05:54:17.924Z,20.42
2022-08-09T05:56:54.541Z,20.45
2022-08-09T05:59:23.896Z,20.47
2022-08-09T06:01:58.993Z,20.49
2022-08-09T06:04:34.801Z,20.50
2022-08-09T06:07:03.876Z,20.54
2022-08-09T06:09:54.856Z,20.51
2022-08-09T06:12:22.739Z,20.52
2022-08-09T06:14:55.056Z,20.56
2022-08-09T06:17:40.219Z,20.53
2022-08-09T06:20:10.086Z,20.55
2022-08-09T06:22:39.490Z,20.60
2022-08-09T06:25:12.466Z,20.56
2022-08-09T06:27:51.405Z,20.56
2022-08-09T06:30:20.473Z,20.55
2022-08-09T06:33:00.212Z,20.58
2022-08-09T06:35:56.225Z,20.59
2022-08-09T06:38:19.181Z,20.59
2022-08-09T06:40:49.184Z,20.63
2022-08-09T06:43:23.675Z,20.69
2022-08-09T06:46:05.868Z,20.68
2022-08-09T06:48:36.740Z,20.71
2022-08-09T06:51:12.011Z,20.69
2022-08-09T06:53:43.275Z,20.72
2022-08-09T06:56:13.693Z,20.75
2022-08-09T07:00:50.757Z,20.76
2022-08-09T07:01:51.963Z,20.79
2022-08-09T07:04:20.410Z,20.79
2022-08-09T07:06:53.452Z,20.83
2022-08-09T07:09:54.955Z,20.85
2022-08-09T07:12:18.809Z,20.78
2022-08-09T07:14:51.137Z,20.82
2022-08-09T07:17:21.717Z,20.82
2022-08-09T07:19:55.622Z,20.82
2022-08-09T07:22:34.297Z,20.74
2022-08-09T07:25:05.480Z,20.76
2022-08-09T07:27:42.579Z,20.80
2022-08-09T07:30:14.406Z,20.81
2022-08-09T07:32:43.628Z,20.80
2022-08-09T07:35:15.156Z,20.82
2022-08-09T07:37:46.031Z,20.84
2022-08-09T07:40:20.514Z,20.80
2022-08-09T07:42:58.734Z,20.82
2022-08-09T07:45:39.404Z,20.83
2022-08-09T07:48:25.544Z,20.85
2022-08-09T07:51:03.102Z,20.86
2022-08-09T07:54:05.461Z,20.82
2022-08-09T07:56:44.887Z,20.83
2022-08-09T07:59:25.550Z,20.85
2022-08-09T08:02:04.845Z,20.87
2022-08-09T08:04:34.307Z,20.92
2022-08-09T08:07:15.442Z,20.97
2022-08-09T08:09:55.046Z,21.04
2022-08-09T08:12:42.505Z,21.11
2022-08-09T08:15:16.785Z,21.08
2022-08-09T08:17:53.275Z,21.14
2022-08-09T08:20:30.472Z,21.15
2022-08-09T08:23:06.518Z,21.14
2022-08-09T08:25:46.653Z,21.20
2022-08-09T08:28:18.273Z,21.25
2022-08-09T08:31:10.476Z,21.27
2022-08-09T08:33:53.278Z,21.28
2022-08-09T08:36:29.681Z,21.30
2022-08-09T08:39:00.269Z,21.31
2022-08-09T08:41:50.306Z,21.35
2022-08-09T08:44:27.053Z,21.39
2022-08-09T08:47:04.603Z,21.38
2022-08-09T08:49:48.005Z,21.38
2022-08-09T08:55:07.995Z,21.55
2022-08-09T08:57:37.101Z,21.62
2022-08-09T09:00:16.932Z,21.68
2022-08-09T09:02:55.604Z,21.65
2022-08-09T09:05:57.982Z,21.61
2022-08-09T09:08:30.686Z,21.67
2022-08-09T09:11:03.809Z,21.69
2022-08-09T09:13:55.029Z,21.67
2022-08-09T09:16:31.224Z,21.66
2022-08-09T09:19:36.870Z,21.74
2022-08-09T09:22:05.394Z,21.79
2022-08-09T09:24:39.732Z,21.88
2022-08-09T09:28:03.271Z,21.98
2022-08-09T09:30:14.203Z,22.23
2022-08-09T09:33:02.814Z,22.54
2022-08-09T09:36:01.075Z,22.84
2022-08-09T09:38:42.773Z,23.11
2022-08-09T09:41:11.632Z,23.53
2022-08-09T09:43:41.200Z,24.22
2022-08-09T09:46:42.630Z,24.85
2022-08-09T09:49:13.894Z,25.34
2022-08-09T09:51:44.105Z,25.66
2022-08-09T09:54:22.765Z,25.71
2022-08-09T09:56:53.349Z,25.71
2022-08-09T09:59:40.498Z,25.67
2022-08-09T10:02:12.747Z,25.59
2022-08-09T10:04:41.851Z,25.51
2022-08-09T10:07:24.944Z,25.44
2022-08-09T10:09:55.560Z,25.45
2022-08-09T10:12:31.305Z,25.52
2022-08-09T10:15:17.102Z,25.53
2022-08-09T10:17:55.134Z,25.37
2022-08-09T10:20:32.851Z,25.28
2022-08-09T10:23:20.367Z,25.22
2022-08-09T10:26:07.498Z,25.20
2022-08-09T10:28:41.055Z,25.14
2022-08-09T10:34:08.782Z,25.23
2022-08-09T10:36:45.156Z,25.18
2022-08-09T10:39:19.267Z,25.25
2022-08-09T10:41:48.595Z,25.23
2022-08-09T10:44:21.907Z,25.28
2022-08-09T10:51:44.784Z,25.18
2022-08-09T10:54:14.992Z,25.06
2022-08-09T10:56:44.730Z,25.06
2022-08-09T10:59:55.446Z,24.97
2022-08-09T11:03:14.569Z,24.87
2022-08-09T11:05:30.514Z,24.76
2022-08-09T11:08:47.033Z,24.73
2022-08-09T11:11:18.875Z,24.67
2022-08-09T11:13:53.729Z,24.59
2022-08-09T11:16:41.124Z,24.47
2022-08-09T11:19:11.230Z,24.36
2022-08-09T11:22:16.644Z,24.36
2022-08-09T11:25:08.422Z,24.33
2022-08-09T11:28:04.791Z,24.30
2022-08-09T11:30:35.629Z,24.36
2022-08-09T11:33:06.900Z,24.39
2022-08-09T11:35:49.136Z,24.39
2022-08-09T11:38:22.158Z,24.41
2022-08-09T11:40:53.128Z,24.43
2022-08-09T11:43:43.104Z,24.40
2022-08-09T11:46:12.048Z,24.45
2022-08-09T11:48:52.295Z,24.51
2022-08-09T11:53:03.269Z,24.46
2022-08-09T11:54:21.654Z,24.49
2022-08-09T11:58:00.703Z,24.55
2022-08-09T12:00:27.395Z,24.54
2022-08-09T12:02:57.581Z,24.52
2022-08-09T12:05:42.333Z,24.49
2022-08-09T12:08:21.726Z,24.51
2022-08-09T12:10:53.923Z,24.57
2022-08-09T12:14:10.757Z,24.63
2022-08-09T12:16:38.217Z,24.63
2022-08-09T12:19:11.393Z,24.65
2022-08-09T12:21:48.417Z,24.68
2022-08-09T12:24:23.703Z,24.72
2022-08-09T12:28:58.990Z,24.73
2022-08-09T12:29:58.645Z,24.74
2022-08-09T12:32:36.016Z,24.75
2022-08-09T12:35:12.446Z,24.80
2022-08-09T12:37:51.432Z,24.75
2022-08-09T12:40:24.819Z,24.78
2022-08-09T12:42:54.202Z,24.80
2022-08-09T12:45:33.670Z,24.81
2022-08-09T12:48:27.848Z,24.77
2022-08-09T12:51:04.018Z,24.78
2022-08-09T12:53:38.369Z,24.75
2022-08-09T12:56:39.329Z,24.68
2022-08-09T12:59:11.926Z,24.65
2022-08-09T13:01:49.160Z,24.64
2022-08-09T13:04:36.471Z,24.60
2022-08-09T13:07:14.793Z,24.58
2022-08-09T13:09:52.850Z,24.53
2022-08-09T13:12:29.503Z,24.49
2022-08-09T13:15:07.301Z,24.48
2022-08-09T13:18:02.860Z,24.51
2022-08-09T13:21:20.557Z,24.57
2022-08-09T13:24:07.123Z,24.59
2022-08-09T13:26:36.770Z,24.58
2022-08-09T13:29:13.014Z,24.55
2022-08-09T13:32:15.826Z,24.54
2022-08-09T13:34:46.805Z,24.53
2022-08-09T13:37:50.987Z,24.53
2022-08-09T13:41:55.513Z,24.54
2022-08-09T13:42:57.106Z,24.53
2022-08-09T13:45:32.278Z,24.55
2022-08-09T13:48:14.662Z,24.55
2022-08-09T13:50:44.243Z,24.58
2022-08-09T13:53:18.088Z,24.55
2022-08-09T13:55:47.842Z,24.53
2022-08-09T13:58:16.914Z,24.48
2022-08-09T14:00:50.639Z,24.45
2022-08-09T14:04:04.992Z,24.38
2022-08-09T14:06:19.471Z,24.35
2022-08-09T14:08:56.447Z,24.32
2022-08-09T14:11:26.628Z,24.31
2022-08-09T14:14:24.515Z,24.32
2022-08-09T14:16:43.913Z,24.23
2022-08-09T14:19:12.761Z,24.22
2022-08-09T14:21:41.433Z,24.19
2022-08-09T14:24:18.579Z,24.20
2022-08-09T14:26:51.915Z,24.15
2022-08-09T14:29:25.450Z,24.19
2022-08-09T14:32:11.415Z,24.17
2022-08-09T14:34:42.024Z,24.17
2022-08-09T14:37:11.103Z,24.13
2022-08-09T14:39:46.953Z,24.16
2022-08-09T14:42:39.374Z,24.14
2022-08-09T14:46:39.340Z,24.11
2022-08-09T14:48:02.429Z,23.98
2022-08-09T14:50:34.626Z,23.95
2022-08-09T14:53:11.521Z,23.90
2022-08-09T14:55:50.180Z,23.88
2022-08-09T14:58:20.092Z,23.91
2022-08-09T15:00:50.929Z,23.89
2022-08-09T15:03:21.001Z,23.85
2022-08-09T15:05:53.728Z,23.86
2022-08-09T15:08:30.425Z,23.85
2022-08-09T15:11:07.130Z,23.80
2022-08-09T15:13:48.415Z,23.73
2022-08-09T15:16:30.340Z,23.74
2022-08-09T15:19:05.663Z,23.73
2022-08-09T15:22:00.896Z,23.72
2022-08-09T15:24:29.926Z,23.65
2022-08-09T15:26:59.872Z,23.70
2022-08-09T15:30:57.554Z,23.71
2022-08-09T15:32:29.389Z,23.73
2022-08-09T15:35:01.113Z,23.70
2022-08-09T15:37:57.387Z,23.72
2022-08-09T15:40:31.994Z,23.66
2022-08-09T15:43:03.541Z,23.67
2022-08-09T15:45:51.981Z,23.63
2022-08-09T15:48:28.378Z,23.61
2022-08-09T15:50:58.124Z,23.58
2022-08-09T15:54:05.836Z,23.56
2022-08-09T15:56:29.185Z,23.58
2022-08-09T15:59:01.013Z,23.56
2022-08-09T16:01:31.423Z,23.54
2022-08-09T16:04:04.265Z,23.58
2022-08-09T16:06:37.501Z,23.56
2022-08-09T16:09:07.566Z,23.53
2022-08-09T16:11:36.028Z,23.53
2022-08-09T16:14:08.005Z,23.55
2022-08-09T16:16:37.721Z,23.54
2022-08-09T16:19:07.759Z,23.53
2022-08-09T16:21:36.862Z,23.51
2022-08-09T16:24:05.854Z,23.44
2022-08-09T16:26:48.998Z,23.44
2022-08-09T16:29:20.136Z,23.45
2022-08-09T16:32:19.899Z,23.45
2022-08-09T16:34:55.281Z,23.39
2022-08-09T16:37:53.735Z,23.34
2022-08-09T16:40:20.607Z,23.35
2022-08-09T16:42:58.629Z,23.30
2022-08-09T16:45:29.009Z,23.24
2022-08-09T16:48:38.242Z,23.21
2022-08-09T16:50:58.796Z,23.24
2022-08-09T16:53:32.540Z,23.23
2022-08-09T16:56:09.120Z,23.25
2022-08-09T16:58:49.834Z,23.27
2022-08-09T17:01:23.770Z,23.23
2022-08-09T17:03:53.670Z,23.25
2022-08-09T17:06:31.385Z,23.22
2022-08-09T17:09:17.784Z,23.16
2022-08-09T17:11:52.439Z,23.16
2022-08-09T17:14:26.602Z,23.13
2022-08-09T17:17:01.213Z,23.13
2022-08-09T17:20:04.947Z,23.13
2022-08-09T17:22:25.169Z,23.13
2022-08-09T17:25:03.652Z,23.10
2022-08-09T17:27:33.239Z,23.09
2022-08-09T17:30:04.706Z,23.04
2022-08-09T17:32:38.629Z,23.00
2022-08-09T17:35:12.290Z,22.97
2022-08-09T17:38:02.553Z,22.94
2022-08-09T17:40:32.628Z,22.91
2022-08-09T17:43:33.019Z,22.90
2022-08-09T17:46:04.145Z,22.86
2022-08-09T17:48:39.399Z,22.80
2022-08-09T17:51:18.779Z,22.77
2022-08-09T17:53:53.515Z,22.76
2022-08-09T17:56:27.966Z,22.76
2022-08-09T17:59:02.945Z,22.71
2022-08-09T18:02:03.219Z,22.69
2022-08-09T18:04:22.147Z,22.66
2022-08-09T18:06:55.074Z,22.64
2022-08-09T18:09:41.202Z,22.61
2022-08-09T18:12:17.291Z,22.59
2022-08-09T18:14:53.364Z,22.58
2022-08-09T18:17:27.612Z,22.54
2022-08-09T18:20:59.346Z,22.53
2022-08-09T18:23:04.893Z,22.51
2022-08-09T18:25:50.809Z,22.50
2022-08-09T18:30:39.731Z,22.46
2022-08-09T18:31:11.550Z,22.45
2022-08-09T18:33:40.665Z,22.40
2022-08-09T18:36:14.159Z,22.38
2022-08-09T18:39:00.690Z,22.38
2022-08-09T18:41:34.303Z,22.36
2022-08-09T18:44:13.159Z,22.34
2022-08-09T18:46:45.945Z,22.28
2022-08-09T18:49:21.463Z,22.27
2022-08-09T18:51:57.642Z,22.29
2022-08-09T18:54:29.558Z,22.27
2022-08-09T18:57:05.360Z,22.25
2022-08-09T18:59:37.488Z,22.23
2022-08-09T19:02:18.532Z,22.22
2022-08-09T19:05:03.998Z,22.21
2022-08-09T19:07:38.687Z,22.18
2022-08-09T19:10:14.197Z,22.15
2022-08-09T19:12:52.930Z,22.14
2022-08-09T19:15:27.783Z,22.10
2022-08-09T19:17:58.687Z,22.09
2022-08-09T19:20:33.965Z,22.06
2022-08-09T19:23:05.408Z,22.05
2022-08-09T19:26:01.079Z,22.03
2022-08-09T19:28:28.675Z,22.02
2022-08-09T19:30:57.642Z,21.98
2022-08-09T19:33:26.393Z,21.97
2022-08-09T19:35:57.444Z,21.94
2022-08-09T19:38:29.059Z,21.93
2022-08-09T19:40:59.894Z,21.90
2022-08-09T19:44:00.409Z,21.90
2022-08-09T19:46:34.280Z,21.87
2022-08-09T19:50:08.671Z,21.86
2022-08-09T19:51:55.489Z,21.84
2022-08-09T19:54:27.217Z,21.82
2022-08-09T19:56:57.185Z,21.80
2022-08-09T19:59:57.416Z,21.78
2022-08-09T20:04:17.987Z,21.75
2022-08-09T20:05:10.275Z,21.72
2022-08-09T20:07:57.024Z,21.69
2022-08-09T20:10:34.130Z,21.67
2022-08-09T20:13:05.098Z,21.65
2022-08-09T20:16:37.863Z,21.62
2022-08-09T20:18:27.962Z,21.59
2022-08-09T20:20:57.949Z,21.57
2022-08-09T20:23:39.323Z,21.56
2022-08-09T20:26:13.033Z,21.53
2022-08-09T20:28:48.416Z,21.54
2022-08-09T20:31:18.496Z,21.52
2022-08-09T20:33:52.456Z,21.54
2022-08-09T20:36:27.271Z,21.51
2022-08-09T20:39:28.330Z,21.52
2022-08-09T20:41:48.925Z,21.52
2022-08-09T20:44:26.447Z,21.51
2022-08-09T20:46:55.645Z,21.49
2022-08-09T20:49:27.583Z,21.49
2022-08-09T20:51:57.916Z,21.48
2022-08-09T20:54:29.197Z,21.46
2022-08-09T20:56:59.990Z,21.44
2022-08-09T21:00:19.844Z,21.44
2022-08-09T21:02:18.569Z,21.41
2022-08-09T21:05:50.982Z,21.40
2022-08-09T21:07:40.257Z,21.35
2022-08-09T21:10:12.050Z,21.39
2022-08-09T21:15:34.161Z,21.38
2022-08-09T21:18:21.319Z,21.34
2022-08-09T21:20:54.456Z,21.35
2022-08-09T21:23:36.033Z,21.36
2022-08-09T21:26:15.686Z,21.35
2022-08-09T21:28:55.434Z,21.36
2022-08-09T21:31:48.592Z,21.35
2022-08-09T21:34:21.035Z,21.35
2022-08-09T21:36:57.970Z,21.34
2022-08-09T21:39:28.155Z,21.32
2022-08-09T21:42:10.893Z,21.31
2022-08-09T21:44:42.795Z,21.26
2022-08-09T21:47:17.666Z,21.27
2022-08-09T21:49:48.243Z,21.26
2022-08-09T21:52:20.524Z,21.25
2022-08-09T21:55:03.181Z,21.23
2022-08-09T21:57:38.921Z,21.24
2022-08-09T22:00:32.443Z,21.20
2022-08-09T22:03:04.925Z,21.16
2022-08-09T22:05:36.912Z,21.17
2022-08-09T22:08:13.023Z,21.18
2022-08-09T22:11:49.842Z,21.19
2022-08-09T22:13:36.758Z,21.17
2022-08-09T22:16:10.177Z,21.13
2022-08-09T22:18:53.683Z,21.10
2022-08-09T22:21:44.651Z,21.11
2022-08-09T22:24:16.562Z,21.10
2022-08-09T22:26:51.208Z,21.10
2022-08-09T22:29:25.543Z,21.09
2022-08-09T22:31:58.963Z,21.09
2022-08-09T22:34:27.779Z,21.05
2022-08-09T22:36:57.959Z,21.04
2022-08-09T22:39:55.781Z,21.02
2022-08-09T22:42:20.978Z,20.97
2022-08-09T22:45:00.141Z,20.95
2022-08-09T22:48:15.096Z,20.94
2022-08-09T22:50:31.371Z,20.94
2022-08-09T22:53:03.529Z,20.91
2022-08-09T22:56:06.366Z,20.94
2022-08-09T22:58:33.122Z,20.90
2022-08-09T23:01:03.668Z,20.87
2022-08-09T23:04:04.598Z,20.88
2022-08-09T23:06:35.688Z,20.80
2022-08-09T23:09:07.225Z,20.82
2022-08-09T23:11:35.969Z,20.80
2022-08-09T23:14:09.943Z,20.82
2022-08-09T23:16:39.098Z,20.85
2022-08-09T23:19:08.996Z,20.86
2022-08-09T23:21:38.722Z,20.88
2022-08-09T23:24:08.385Z,20.83
2022-08-09T23:26:37.371Z,20.79
2022-08-09T23:29:06.696Z,20.75
2022-08-09T23:31:35.217Z,20.75
2022-08-09T23:34:04.148Z,20.76
2022-08-09T23:36:34.910Z,20.79
2022-08-09T23:39:03.604Z,20.72
2022-08-09T23:41:32.140Z,20.74
2022-08-09T23:44:01.848Z,20.73
2022-08-09T23:46:31.263Z,20.74
2022-08-09T23:49:01.236Z,20.74
2022-08-09T23:51:30.089Z,20.74
2022-08-09T23:54:02.541Z,20.76
2022-08-09T23:56:52.118Z,20.73
2022-08-09T23:59:22.090Z,20.70
